createdAt,value
2019-05-29T00:02:29.884Z,66.35
2019-05-29T00:05:02.158Z,66.49
2019-05-29T00:07:34.640Z,66.75
2019-05-29T00:10:08.775Z,66.87
2019-05-29T00:12:40.629Z,67.00
2019-05-29T00:15:13.004Z,66.85
2019-05-29T00:17:45.177Z,67.35
2019-05-29T00:20:18.575Z,67.42
2019-05-29T00:22:50.845Z,67.42
2019-05-29T00:25:22.959Z,67.56
2019-05-29T00:27:55.497Z,67.57
2019-05-29T00:30:28.176Z,67.59
2019-05-29T00:33:00.143Z,67.79
2019-05-29T00:35:32.517Z,67.90
2019-05-29T00:38:04.690Z,68.01
2019-05-29T00:40:37.582Z,67.94
2019-05-29T00:43:09.440Z,67.80
2019-05-29T00:45:41.721Z,68.15
2019-05-29T00:48:14.124Z,68.32
2019-05-29T00:50:46.270Z,68.47
2019-05-29T00:53:18.638Z,68.41
2019-05-29T00:55:50.716Z,68.33
2019-05-29T00:58:25.650Z,68.29
2019-05-29T01:00:57.820Z,68.11
2019-05-29T01:03:29.780Z,68.05
2019-05-29T01:06:02.362Z,67.98
2019-05-29T01:08:34.323Z,67.94
2019-05-29T01:11:06.630Z,68.08
2019-05-29T01:13:38.978Z,68.26
2019-05-29T01:16:11.392Z,68.31
2019-05-29T01:18:43.435Z,68.34
2019-05-29T01:21:15.989Z,68.24
2019-05-29T01:23:47.970Z,68.02
2019-05-29T01:26:20.896Z,67.85
2019-05-29T01:28:53.137Z,67.72
2019-05-29T01:31:25.616Z,67.40
2019-05-29T01:33:57.805Z,67.20
2019-05-29T01:36:30.056Z,66.73
2019-05-29T01:39:02.027Z,66.53
2019-05-29T01:41:34.912Z,66.30
2019-05-29T01:44:06.888Z,66.11
2019-05-29T01:46:39.363Z,66.09
2019-05-29T01:49:11.537Z,65.88
2019-05-29T01:51:44.015Z,65.61
2019-05-29T01:54:16.096Z,65.71
2019-05-29T01:56:48.286Z,65.64
2019-05-29T01:59:20.217Z,65.66
2019-05-29T02:01:52.496Z,65.72
2019-05-29T02:04:24.664Z,65.76
2019-05-29T02:06:56.630Z,65.51
2019-05-29T02:09:28.617Z,65.58
2019-05-29T02:12:00.559Z,65.29
2019-05-29T02:14:32.938Z,65.06
2019-05-29T02:17:05.315Z,64.81
2019-05-29T02:19:37.486Z,64.60
2019-05-29T02:22:09.758Z,64.46
2019-05-29T02:24:42.451Z,64.18
2019-05-29T02:27:17.307Z,64.09
2019-05-29T02:29:50.980Z,64.02
2019-05-29T02:32:23.646Z,63.56
2019-05-29T02:34:56.048Z,63.39
2019-05-29T02:37:29.036Z,63.47
2019-05-29T02:40:01.203Z,63.44
2019-05-29T02:42:34.604Z,63.41
2019-05-29T02:45:07.593Z,63.28
2019-05-29T02:47:39.862Z,63.28
2019-05-29T02:50:11.932Z,63.14
2019-05-29T02:52:44.204Z,62.92
2019-05-29T02:55:16.281Z,62.90
2019-05-29T02:57:48.652Z,62.88
2019-05-29T03:00:25.547Z,62.78
2019-05-29T03:02:57.399Z,62.52
2019-05-29T03:05:29.915Z,62.43
2019-05-29T03:08:01.948Z,62.56
2019-05-29T03:10:34.219Z,62.32
2019-05-29T03:13:07.002Z,62.22
2019-05-29T03:15:39.077Z,62.23
2019-05-29T03:18:11.245Z,61.96
2019-05-29T03:20:43.252Z,61.83
2019-05-29T03:23:16.715Z,61.48
2019-05-29T03:25:48.992Z,61.18
2019-05-29T03:28:21.465Z,60.82
2019-05-29T03:30:53.656Z,60.51
2019-05-29T03:33:28.588Z,60.42
2019-05-29T03:35:59.706Z,60.37
2019-05-29T03:38:32.726Z,60.02
2019-05-29T03:41:05.089Z,59.65
2019-05-29T03:43:38.778Z,59.08
2019-05-29T03:46:29.150Z,57.86
2019-05-29T03:48:45.073Z,58.55
2019-05-29T03:51:17.398Z,58.44
2019-05-29T03:53:49.626Z,58.02
2019-05-29T03:56:21.700Z,57.63
2019-05-29T03:58:53.964Z,57.42
2019-05-29T04:01:26.780Z,57.07
2019-05-29T04:03:58.815Z,57.03
2019-05-29T04:06:31.304Z,57.04
2019-05-29T04:09:03.159Z,56.64
2019-05-29T04:11:37.891Z,56.37
2019-05-29T04:14:09.963Z,56.05
2019-05-29T04:16:58.459Z,55.81
2019-05-29T04:19:16.063Z,55.42
2019-05-29T04:21:47.909Z,55.28
2019-05-29T04:24:19.885Z,55.34
2019-05-29T04:26:51.946Z,55.08
2019-05-29T04:29:24.842Z,55.34
2019-05-29T04:31:56.597Z,55.39
2019-05-29T04:34:29.582Z,55.56
2019-05-29T04:37:07.026Z,55.75
2019-05-29T04:39:36.965Z,55.89
2019-05-29T04:42:08.870Z,55.25
2019-05-29T04:44:41.389Z,55.13
2019-05-29T04:47:13.520Z,54.87
2019-05-29T04:49:45.793Z,54.65
2019-05-29T04:52:18.785Z,54.44
2019-05-29T04:54:50.653Z,53.96
2019-05-29T04:57:23.029Z,54.05
2019-05-29T04:59:55.198Z,53.99
2019-05-29T05:02:27.265Z,53.70
2019-05-29T05:04:59.540Z,53.46
2019-05-29T05:07:31.299Z,53.33
2019-05-29T05:10:03.367Z,53.53
2019-05-29T05:12:37.728Z,53.69
2019-05-29T05:15:10.857Z,53.65
2019-05-29T05:17:42.855Z,53.41
2019-05-29T05:20:15.021Z,53.02
2019-05-29T05:22:47.293Z,52.61
2019-05-29T05:25:19.587Z,52.12
2019-05-29T05:27:51.749Z,51.55
2019-05-29T05:30:24.178Z,51.58
2019-05-29T05:32:56.599Z,51.13
2019-05-29T05:35:29.086Z,50.50
2019-05-29T05:38:01.145Z,49.36
2019-05-29T05:40:36.990Z,49.11
2019-05-29T05:43:07.227Z,48.28
2019-05-29T05:45:39.546Z,48.08
2019-05-29T05:48:11.380Z,47.59
2019-05-29T05:50:43.264Z,47.81
2019-05-29T05:53:15.420Z,47.08
2019-05-29T05:55:48.003Z,47.58
2019-05-29T05:58:19.934Z,47.61
2019-05-29T06:00:52.310Z,47.77
2019-05-29T06:03:24.385Z,47.66
2019-05-29T06:05:56.345Z,47.43
2019-05-29T06:08:28.614Z,47.62
2019-05-29T06:11:00.888Z,47.22
2019-05-29T06:13:34.109Z,46.43
2019-05-29T06:16:06.191Z,46.27
2019-05-29T06:18:38.646Z,46.55
2019-05-29T06:21:10.709Z,46.64
2019-05-29T06:23:43.434Z,45.12
2019-05-29T06:26:16.769Z,45.23
2019-05-29T06:28:48.924Z,45.19
2019-05-29T06:31:20.899Z,44.57
2019-05-29T06:33:53.058Z,44.28
2019-05-29T06:36:25.127Z,44.41
2019-05-29T06:38:57.505Z,44.61
2019-05-29T06:41:29.690Z,44.22
2019-05-29T06:44:01.889Z,43.56
2019-05-29T06:46:34.326Z,43.59
2019-05-29T06:49:06.293Z,43.60
2019-05-29T06:51:39.324Z,43.91
2019-05-29T06:54:11.229Z,43.54
2019-05-29T06:56:43.804Z,43.30
2019-05-29T06:59:17.015Z,43.61
2019-05-29T07:01:49.374Z,43.44
2019-05-29T07:04:21.440Z,43.81
2019-05-29T07:06:53.611Z,43.75
2019-05-29T07:09:25.695Z,43.86
2019-05-29T07:11:58.050Z,43.68
2019-05-29T07:14:30.331Z,43.12
2019-05-29T07:17:02.600Z,42.81
2019-05-29T07:19:48.877Z,43.11
2019-05-29T07:22:08.885Z,43.59
2019-05-29T07:24:41.208Z,43.98
2019-05-29T07:27:13.709Z,44.04
2019-05-29T07:29:45.490Z,43.91
2019-05-29T07:32:17.874Z,44.14
2019-05-29T07:35:02.769Z,43.61
2019-05-29T07:37:24.565Z,43.21
2019-05-29T07:39:56.619Z,43.59
2019-05-29T07:42:28.590Z,43.18
2019-05-29T07:45:02.005Z,43.04
2019-05-29T07:47:35.197Z,43.20
2019-05-29T07:50:07.655Z,42.91
2019-05-29T07:52:45.347Z,43.28
2019-05-29T07:55:17.822Z,41.91
2019-05-29T07:57:50.088Z,42.05
2019-05-29T08:00:22.158Z,41.25
2019-05-29T08:02:55.217Z,40.04
2019-05-29T08:05:30.179Z,39.53
2019-05-29T08:08:02.371Z,39.93
2019-05-29T08:10:34.201Z,40.29
2019-05-29T08:13:07.529Z,39.94
2019-05-29T08:15:55.291Z,40.75
2019-05-29T08:18:14.295Z,40.31
2019-05-29T08:20:46.263Z,39.11
2019-05-29T08:23:18.323Z,38.72
2019-05-29T08:25:51.782Z,39.21
2019-05-29T08:28:24.094Z,39.89
2019-05-29T08:30:56.686Z,40.16
2019-05-29T08:33:28.633Z,39.88
2019-05-29T08:36:00.802Z,39.90
2019-05-29T08:38:33.591Z,39.95
2019-05-29T08:41:06.377Z,39.83
2019-05-29T08:43:38.249Z,40.10
2019-05-29T08:46:10.186Z,40.17
2019-05-29T08:48:41.929Z,40.38
2019-05-29T08:51:14.061Z,40.54
2019-05-29T08:53:46.463Z,40.14
2019-05-29T08:56:18.256Z,40.33
2019-05-29T08:58:51.047Z,39.92
2019-05-29T09:01:23.005Z,39.13
2019-05-29T09:03:55.018Z,39.17
2019-05-29T09:06:27.162Z,39.31
2019-05-29T09:08:59.331Z,38.55
2019-05-29T09:11:31.594Z,38.16
2019-05-29T09:14:03.857Z,38.73
2019-05-29T09:16:36.027Z,38.63
2019-05-29T09:19:07.721Z,38.56
2019-05-29T09:21:39.749Z,38.18
2019-05-29T09:24:12.893Z,37.92
2019-05-29T09:26:46.547Z,37.66
2019-05-29T09:29:21.805Z,37.73
2019-05-29T09:31:52.220Z,37.46
2019-05-29T09:34:24.431Z,37.43
2019-05-29T09:36:56.716Z,36.71
2019-05-29T09:39:28.830Z,36.66
2019-05-29T09:42:01.205Z,36.67
2019-05-29T09:44:38.791Z,36.39
2019-05-29T09:47:07.390Z,36.35
2019-05-29T09:49:39.449Z,36.00
2019-05-29T09:52:11.519Z,36.24
2019-05-29T09:54:43.402Z,36.01
2019-05-29T09:57:15.752Z,36.07
2019-05-29T09:59:48.845Z,35.73
2019-05-29T10:02:20.737Z,35.78
2019-05-29T10:04:54.405Z,35.61
2019-05-29T10:07:26.366Z,35.56
2019-05-29T10:09:59.375Z,35.78
2019-05-29T10:12:32.087Z,35.65
2019-05-29T10:15:08.396Z,35.74
2019-05-29T10:17:40.469Z,35.78
2019-05-29T10:20:12.570Z,35.75
2019-05-29T10:22:44.858Z,35.67
2019-05-29T10:25:16.882Z,35.22
2019-05-29T10:27:48.634Z,35.32
2019-05-29T10:30:20.742Z,34.55
2019-05-29T10:32:55.344Z,33.99
2019-05-29T10:35:28.737Z,33.67
2019-05-29T10:38:01.304Z,34.04
2019-05-29T10:40:33.572Z,33.63
2019-05-29T10:43:06.992Z,33.28
2019-05-29T10:45:40.563Z,33.45
2019-05-29T10:48:14.406Z,33.87
2019-05-29T10:50:52.149Z,33.87
2019-05-29T10:53:27.371Z,33.82
2019-05-29T10:56:01.521Z,33.19
2019-05-29T10:58:48.589Z,32.86
2019-05-29T11:01:11.076Z,32.89
2019-05-29T11:03:43.039Z,32.45
2019-05-29T11:06:15.206Z,32.17
2019-05-29T11:08:48.028Z,32.35
2019-05-29T11:11:20.456Z,32.18
2019-05-29T11:13:52.997Z,31.69
2019-05-29T11:16:25.318Z,31.76
2019-05-29T11:18:57.756Z,31.75
2019-05-29T11:21:29.743Z,30.55
2019-05-29T11:24:02.319Z,30.37
2019-05-29T11:26:35.370Z,30.41
2019-05-29T11:29:07.888Z,29.94
2019-05-29T11:31:39.943Z,29.14
2019-05-29T11:34:12.016Z,29.09
2019-05-29T11:36:44.687Z,28.79
2019-05-29T11:39:17.497Z,28.19
2019-05-29T11:41:50.644Z,27.80
2019-05-29T11:44:22.645Z,27.75
2019-05-29T11:46:56.094Z,28.12
2019-05-29T11:49:28.096Z,28.06
2019-05-29T11:52:22.891Z,27.78
2019-05-29T11:54:33.650Z,26.81
2019-05-29T11:57:05.408Z,26.84
2019-05-29T11:59:37.824Z,26.78
2019-05-29T12:02:09.757Z,26.54
2019-05-29T12:04:42.050Z,26.67
2019-05-29T12:07:14.284Z,26.16
2019-05-29T12:09:46.556Z,24.74
2019-05-29T12:12:18.923Z,25.07
2019-05-29T12:15:00.616Z,25.36
2019-05-29T12:17:25.034Z,25.98
2019-05-29T12:19:59.859Z,26.15
2019-05-29T12:22:30.694Z,26.71
2019-05-29T12:25:03.038Z,27.38
2019-05-29T12:27:34.910Z,27.05
2019-05-29T12:30:08.391Z,27.55
2019-05-29T12:32:42.399Z,28.11
2019-05-29T12:35:14.373Z,28.18
2019-05-29T12:37:46.648Z,28.57
2019-05-29T12:40:18.918Z,29.00
2019-05-29T12:42:50.878Z,28.92
2019-05-29T12:45:23.354Z,28.69
2019-05-29T12:47:56.490Z,28.93
2019-05-29T12:50:34.069Z,28.33
2019-05-29T12:53:03.973Z,27.51
2019-05-29T12:55:36.016Z,27.03
2019-05-29T12:58:08.080Z,26.66
2019-05-29T13:00:40.173Z,26.84
2019-05-29T13:03:12.323Z,27.72
2019-05-29T13:05:44.299Z,28.42
2019-05-29T13:08:16.551Z,29.39
2019-05-29T13:10:48.544Z,30.03
2019-05-29T13:13:20.379Z,30.30
2019-05-29T13:15:52.553Z,30.73
2019-05-29T13:18:24.714Z,30.68
2019-05-29T13:20:56.746Z,29.14
2019-05-29T13:23:42.233Z,28.50
2019-05-29T13:26:03.596Z,27.97
2019-05-29T13:28:35.382Z,26.98
2019-05-29T13:31:07.603Z,26.39
2019-05-29T13:33:39.573Z,25.67
2019-05-29T13:36:11.637Z,24.58
2019-05-29T13:38:43.596Z,24.63
2019-05-29T13:41:15.562Z,24.78
2019-05-29T13:43:47.728Z,25.04
2019-05-29T13:46:19.599Z,24.41
2019-05-29T13:48:51.658Z,25.05
2019-05-29T13:51:23.819Z,25.26
2019-05-29T13:54:03.808Z,25.26
2019-05-29T13:56:29.486Z,25.21
2019-05-29T13:59:02.145Z,25.26
2019-05-29T14:01:34.234Z,25.53
2019-05-29T14:04:06.808Z,25.12
2019-05-29T14:06:38.941Z,24.14
2019-05-29T14:09:11.046Z,23.62
2019-05-29T14:11:42.911Z,22.98
2019-05-29T14:14:14.949Z,22.74
2019-05-29T14:16:46.947Z,22.71
2019-05-29T14:19:19.118Z,23.13
2019-05-29T14:21:51.531Z,23.39
2019-05-29T14:24:29.503Z,23.63
2019-05-29T14:26:59.360Z,23.96
2019-05-29T14:29:32.627Z,23.84
2019-05-29T14:32:05.131Z,23.55
2019-05-29T14:34:37.434Z,23.72
2019-05-29T14:37:09.943Z,23.76
2019-05-29T14:39:41.770Z,23.32
2019-05-29T14:42:13.732Z,23.32
2019-05-29T14:44:46.820Z,23.33
2019-05-29T14:47:19.029Z,23.61
2019-05-29T14:49:51.170Z,23.86
2019-05-29T14:52:23.323Z,24.22
2019-05-29T14:54:55.386Z,24.27
2019-05-29T14:57:27.670Z,24.14
2019-05-29T14:59:59.632Z,23.88
2019-05-29T15:02:31.784Z,24.07
2019-05-29T15:05:05.495Z,24.36
2019-05-29T15:07:37.462Z,24.56
2019-05-29T15:10:23.915Z,24.37
2019-05-29T15:12:43.780Z,24.34
2019-05-29T15:15:16.783Z,24.29
2019-05-29T15:17:49.516Z,24.30
2019-05-29T15:20:23.591Z,23.86
2019-05-29T15:22:55.595Z,23.66
2019-05-29T15:25:28.176Z,23.80
2019-05-29T15:28:00.338Z,23.76
2019-05-29T15:30:32.925Z,23.50
2019-05-29T15:33:06.336Z,23.38
2019-05-29T15:35:38.480Z,23.61
2019-05-29T15:38:10.801Z,23.73
2019-05-29T15:40:42.923Z,23.60
2019-05-29T15:43:15.401Z,23.99
2019-05-29T15:45:47.862Z,24.05
2019-05-29T15:48:20.146Z,24.28
2019-05-29T15:50:52.519Z,24.42
2019-05-29T15:53:24.997Z,24.62
2019-05-29T15:55:57.663Z,24.88
2019-05-29T15:58:29.752Z,25.58
2019-05-29T16:01:01.715Z,26.17
2019-05-29T16:03:34.489Z,26.74
2019-05-29T16:06:06.153Z,27.37
2019-05-29T16:08:37.844Z,28.26
2019-05-29T16:11:10.577Z,29.03
2019-05-29T16:13:42.757Z,29.81
2019-05-29T16:16:15.332Z,30.73
2019-05-29T16:18:47.401Z,31.36
2019-05-29T16:21:19.468Z,32.04
2019-05-29T16:23:51.740Z,32.64
2019-05-29T16:26:24.524Z,33.07
2019-05-29T16:28:56.597Z,33.23
2019-05-29T16:31:28.865Z,33.88
2019-05-29T16:34:01.426Z,34.35
2019-05-29T16:36:34.555Z,34.62
2019-05-29T16:39:07.995Z,34.97
2019-05-29T16:41:40.038Z,35.34
2019-05-29T16:44:12.180Z,35.61
2019-05-29T16:46:44.353Z,35.96
2019-05-29T16:49:16.659Z,36.10
2019-05-29T16:51:48.479Z,36.60
2019-05-29T16:54:21.046Z,37.07
2019-05-29T16:56:52.817Z,37.20
2019-05-29T16:59:29.039Z,37.39
2019-05-29T17:01:58.887Z,37.81
2019-05-29T17:04:30.849Z,37.81
2019-05-29T17:07:03.185Z,38.25
2019-05-29T17:09:35.492Z,38.54
2019-05-29T17:12:07.348Z,38.71
2019-05-29T17:14:39.140Z,39.47
2019-05-29T17:17:11.473Z,39.84
2019-05-29T17:19:43.644Z,40.11
2019-05-29T17:22:16.556Z,40.40
2019-05-29T17:24:48.799Z,41.17
2019-05-29T17:27:21.329Z,41.30
2019-05-29T17:29:53.342Z,41.68
2019-05-29T17:32:25.583Z,41.84
2019-05-29T17:34:57.984Z,42.20
2019-05-29T17:37:30.249Z,42.82
2019-05-29T17:40:02.631Z,42.99
2019-05-29T17:42:34.686Z,43.48
2019-05-29T17:45:08.091Z,43.54
2019-05-29T17:47:40.919Z,43.88
2019-05-29T17:50:13.466Z,44.56
2019-05-29T17:52:45.605Z,44.71
2019-05-29T17:55:19.996Z,45.10
2019-05-29T17:57:51.280Z,45.36
2019-05-29T18:00:26.583Z,45.37
2019-05-29T18:02:58.796Z,45.88
2019-05-29T18:05:31.172Z,45.94
2019-05-29T18:08:03.534Z,46.03
2019-05-29T18:10:35.496Z,46.47
2019-05-29T18:13:07.251Z,46.53
2019-05-29T18:15:40.140Z,46.87
2019-05-29T18:18:12.646Z,46.86
2019-05-29T18:20:45.183Z,46.92
2019-05-29T18:23:17.580Z,47.15
2019-05-29T18:25:49.425Z,47.47
2019-05-29T18:28:22.060Z,47.55
2019-05-29T18:30:54.363Z,47.66
2019-05-29T18:33:26.805Z,48.08
2019-05-29T18:35:58.920Z,48.22
2019-05-29T18:38:31.077Z,48.69
2019-05-29T18:41:03.295Z,49.19
2019-05-29T18:43:35.405Z,49.10
2019-05-29T18:46:08.702Z,49.89
2019-05-29T18:48:40.465Z,50.12
2019-05-29T18:51:12.825Z,50.33
2019-05-29T18:53:44.483Z,50.68
2019-05-29T18:56:16.659Z,50.61
2019-05-29T18:58:49.024Z,51.03
2019-05-29T19:01:21.537Z,51.21
2019-05-29T19:03:53.682Z,52.06
2019-05-29T19:06:26.147Z,51.91
2019-05-29T19:08:58.827Z,52.01
2019-05-29T19:11:31.985Z,52.24
2019-05-29T19:14:05.161Z,52.46
2019-05-29T19:16:39.624Z,52.71
2019-05-29T19:19:11.485Z,52.86
2019-05-29T19:21:43.543Z,53.05
2019-05-29T19:24:15.923Z,53.25
2019-05-29T19:26:48.559Z,53.46
2019-05-29T19:29:23.003Z,53.49
2019-05-29T19:31:55.567Z,53.98
2019-05-29T19:34:29.412Z,54.16
2019-05-29T19:37:02.468Z,54.04
2019-05-29T19:39:34.785Z,53.20
2019-05-29T19:42:07.248Z,53.49
2019-05-29T19:44:39.602Z,53.32
2019-05-29T19:47:11.776Z,53.71
2019-05-29T19:49:43.939Z,54.32
2019-05-29T19:52:16.920Z,54.15
2019-05-29T19:54:49.297Z,54.01
2019-05-29T19:57:21.665Z,54.47
2019-05-29T19:59:53.747Z,55.05
2019-05-29T20:02:26.489Z,55.21
2019-05-29T20:04:58.673Z,55.44
2019-05-29T20:07:31.124Z,55.53
2019-05-29T20:10:03.419Z,55.24
2019-05-29T20:12:35.737Z,55.32
2019-05-29T20:15:07.749Z,55.37
2019-05-29T20:17:39.926Z,55.44
2019-05-29T20:20:12.058Z,55.61
2019-05-29T20:22:44.154Z,55.74
2019-05-29T20:25:16.419Z,55.76
2019-05-29T20:27:48.281Z,55.89
2019-05-29T20:30:20.241Z,55.91
2019-05-29T20:32:52.919Z,56.26
2019-05-29T20:35:25.195Z,56.72
2019-05-29T20:37:58.179Z,56.52
2019-05-29T20:40:31.037Z,56.66
2019-05-29T20:43:03.329Z,56.88
2019-05-29T20:45:35.620Z,57.18
2019-05-29T20:48:07.693Z,57.42
2019-05-29T20:50:39.929Z,57.57
2019-05-29T20:53:12.111Z,57.52
2019-05-29T20:55:44.162Z,57.40
2019-05-29T20:58:24.513Z,57.40
2019-05-29T21:00:50.521Z,57.50
2019-05-29T21:03:22.609Z,57.56
2019-05-29T21:05:54.784Z,57.57
2019-05-29T21:08:27.678Z,57.29
2019-05-29T21:11:00.073Z,57.30
2019-05-29T21:13:35.303Z,57.03
2019-05-29T21:16:07.400Z,57.18
2019-05-29T21:18:39.924Z,57.02
2019-05-29T21:21:11.776Z,56.96
2019-05-29T21:23:44.783Z,56.97
2019-05-29T21:26:16.927Z,56.66
2019-05-29T21:28:50.760Z,57.05
2019-05-29T21:31:22.801Z,56.96
2019-05-29T21:33:55.069Z,56.66
2019-05-29T21:36:26.830Z,56.63
2019-05-29T21:38:58.992Z,56.55
2019-05-29T21:41:31.775Z,56.02
2019-05-29T21:44:03.737Z,55.80
2019-05-29T21:46:36.700Z,55.70
2019-05-29T21:49:08.488Z,55.35
2019-05-29T21:51:41.494Z,55.16
2019-05-29T21:54:13.546Z,55.31
2019-05-29T21:56:45.867Z,55.25
2019-05-29T21:59:17.762Z,54.70
2019-05-29T22:01:49.443Z,54.58
2019-05-29T22:04:21.790Z,54.64
2019-05-29T22:06:54.903Z,54.83
2019-05-29T22:09:27.154Z,54.81
2019-05-29T22:12:00.512Z,54.99
2019-05-29T22:14:33.542Z,55.10
2019-05-29T22:17:05.919Z,55.18
2019-05-29T22:19:37.735Z,55.47
2019-05-29T22:22:09.817Z,55.67
2019-05-29T22:24:41.887Z,55.75
2019-05-29T22:27:14.078Z,55.78
2019-05-29T22:29:46.260Z,55.90
2019-05-29T22:32:18.523Z,55.76
2019-05-29T22:34:52.082Z,55.84
2019-05-29T22:37:24.489Z,56.05
2019-05-29T22:39:57.737Z,56.24
2019-05-29T22:42:29.646Z,56.13
2019-05-29T22:45:02.220Z,56.30
2019-05-29T22:47:34.397Z,56.20
2019-05-29T22:50:07.185Z,56.31
2019-05-29T22:52:38.943Z,56.26
2019-05-29T22:55:10.967Z,56.38
2019-05-29T22:57:43.177Z,56.50
2019-05-29T23:00:16.593Z,56.53
2019-05-29T23:02:48.946Z,56.56
2019-05-29T23:05:21.115Z,56.71
2019-05-29T23:07:54.046Z,56.92
2019-05-29T23:10:25.716Z,56.95
2019-05-29T23:13:01.109Z,56.94
2019-05-29T23:15:32.367Z,57.15
2019-05-29T23:18:04.822Z,57.14
2019-05-29T23:20:36.784Z,57.25
2019-05-29T23:23:08.970Z,57.58
2019-05-29T23:25:40.864Z,57.83
2019-05-29T23:28:13.897Z,58.12
2019-05-29T23:30:45.867Z,58.23
2019-05-29T23:33:18.245Z,58.22
2019-05-29T23:35:50.109Z,58.19
2019-05-29T23:38:22.255Z,58.46
2019-05-29T23:40:55.282Z,58.41
2019-05-29T23:43:27.128Z,58.39
2019-05-29T23:45:59.458Z,58.57
2019-05-29T23:48:32.019Z,58.69
2019-05-29T23:51:04.139Z,58.93
2019-05-29T23:53:36.133Z,58.98
2019-05-29T23:56:08.280Z,59.06
2019-05-29T23:58:40.242Z,59.11
